Lassen Volcanic National Park, CA

8:33 AM PDT on September 16, 2014 (GMT -0700)
Red Bluff Municipal | Change Station
CLOSE
Current Station
Airport
Location: Red Bluff,
Elevation: 351 ft
Nearby Weather Stations

Elev 351 ft 40.15 °N, 122.25 °W | Updated 39 minutes ago

Clear
Clear
59 °F
Feels Like 59 °F
N
4
Wind Variable Wind from WNW

Today
High -- | Low -- °F
--% Chance of Precip.
Yesterday
High -- | Low -- °F
Precip. -- in
6:47 AM 7:12 PM
Last Quarter, 44% visible
Pressure 29.91 in
Visibility 10.0 miles
Clouds Clear
Dew Point 47 °F
Humidity 64%
Rainfall 0.00 in
Snow Depth 1 in , 0 in , 0 in
UV 1 out of 12
Pollen 6.80 out of 12
Air Quality Not available.
Flu Activity Not available.
METAR KRBL 161454Z AUTO 30003KT 10SM CLR 15/08 A2992 RMK AO2 SLP128 T01500083 51013

More Conditions Fewer Conditions

Pressure 29.91 in
Visibility 10.0 miles
Clouds Clear
Dew Point 47 °F
Humidity 64%
Rainfall 0.00 in
Snow Depth 1 in , 0 in , 0 in
UV 1 out of 12
Pollen 6.80 out of 12
Air Quality Not available.
Flu Activity Not available.
METAR KRBL 161454Z AUTO 30003KT 10SM CLR 15/08 A2992 RMK AO2 SLP128 T01500083 51013

More Conditions Fewer Conditions

10-Day Weather Forecast

Almanac

Astronomy

Sep. 16, 2014 Rise Set
Actual Time 6:47 AM PDT 7:12 PM PDT
Civil Twilight 6:20 AM PDT 7:40 PM PDT
Nautical Twilight 5:48 AM PDT 8:12 PM PDT
Astronomical Twilight 5:15 AM PDT 8:45 PM PDT
Moon 12:01 AM PDT 2:41 PM PDT
Length of Visible Light 13h 19m
Length of Day
12h 25m
Tomorrow will be 2m 38s shorter.
Last Quarter, 44% of the Moon is Illuminated
Today
Last Quarter
Sep 24
New
Oct 1
First Quarter
Oct 8
Full
Oct 15
Last Quarter

Today's Extremes

State Highs State Lows

Community

WunderPhotos

Upload Photos

1,753,810 photos uploaded!

Nearby

Snow Depth

Station Depth Elevation
Leavitt Meadows 1 in 7200 ft
Blue Lakes 0 in 8000 ft
Tahoe City Cross 0 in 6750 ft
Sonora Pass 0 in 8800 ft
Monitor Pass 0 in 8350 ft

Earthquake Activity

City Distance Mag. Time & Date
Lakeview, Oregon 144 miles 2.5 4:10 AM PDT
2014-09-16
Lakeview, Oregon 145 miles 3.0 4:23 PM PDT
2014-09-15
Lakeview, Oregon 144 miles 2.9 6:16 AM PDT
2014-09-15
Lakeview, Oregon 145 miles 2.6 11:21 PM PDT
2014-09-14
Minimum magnitude displayed is 2.5.

Coastal Water Temperatures

Place Temperature
No Stations Reporting

Nearby Weather Stations